Time;durP1;ratioP1;P1;durP2;ratioP2;P2;SDS_P1;SDS_P2;PMS_P1;PMS_P2;Temp;Humidity;BMP_temperature;BMP_pressure;BME280_temperature;BME280_humidity;BME280_pressure;Samples;Min_cycle;Max_cycle;Signal;HPM_P1;HPM_P2
2021/06/25 00:02:15;;;;;;;7.72;4.07;;;;;;;24.85;34.22;101968.38;5072713;28;20035;-82
2021/06/25 00:04:41;;;;;;;9.75;4.65;;;;;;;24.88;34.20;101978.03;5054576;28;20025;-82
2021/06/25 00:07:07;;;;;;;7.22;3.75;;;;;;;24.81;34.24;101969.56;5072548;28;20107;-82
2021/06/25 00:09:33;;;;;;;13.48;6.88;;;;;;;24.90;33.73;101961.66;5072628;28;20523;-82
2021/06/25 00:12:00;;;;;;;12.88;6.15;;;;;;;24.38;34.37;101959.81;5072662;28;20055;-80
2021/06/25 00:14:25;;;;;;;11.80;5.72;;;;;;;24.56;34.27;101960.84;5072750;28;20108;-81
2021/06/25 00:16:52;;;;;;;10.45;5.00;;;;;;;24.67;34.12;101950.63;5072466;28;20052;-79
2021/06/25 00:19:19;;;;;;;10.23;4.53;;;;;;;24.76;33.74;101951.13;5072416;28;20020;-79
2021/06/25 00:21:45;;;;;;;10.07;4.72;;;;;;;24.52;33.88;101951.63;5072295;28;20378;-81
2021/06/25 00:24:10;;;;;;;16.25;6.63;;;;;;;24.55;34.13;101948.06;5072273;28;20104;-79
2021/06/25 00:26:36;;;;;;;15.00;7.05;;;;;;;24.64;33.76;101943.00;5072385;28;20028;-82
2021/06/25 00:29:02;;;;;;;20.38;11.18;;;;;;;24.62;34.13;101936.97;5072262;28;20064;-80
2021/06/25 00:31:27;;;;;;;16.65;9.32;;;;;;;24.30;34.62;101940.13;5072291;28;20028;-81
2021/06/25 00:33:53;;;;;;;15.85;6.50;;;;;;;24.37;34.17;101935.84;5072201;28;20024;-79
2021/06/25 00:36:19;;;;;;;9.02;4.38;;;;;;;24.42;33.91;101938.31;5072134;28;20035;-78
2021/06/25 00:38:44;;;;;;;9.40;3.55;;;;;;;24.30;33.82;101942.13;5072279;28;20021;-81
2021/06/25 00:41:10;;;;;;;7.85;3.40;;;;;;;24.29;33.56;101941.31;5072109;28;20127;-78
2021/06/25 00:43:39;;;;;;;8.10;3.97;;;;;;;24.04;33.88;101948.53;5072109;28;20016;-78
2021/06/25 00:46:05;;;;;;;11.02;5.30;;;;;;;24.12;33.62;101946.66;5072221;28;20024;-79
2021/06/25 00:48:31;;;;;;;12.90;6.95;;;;;;;24.21;33.23;101950.78;5054437;28;20075;-78
2021/06/25 00:50:57;;;;;;;9.13;4.30;;;;;;;24.29;33.22;101954.47;5054048;28;20071;-79
2021/06/25 00:53:23;;;;;;;8.98;4.18;;;;;;;24.17;33.51;101938.72;5054127;28;20185;-81
2021/06/25 00:55:49;;;;;;;9.68;4.68;;;;;;;24.33;33.32;101953.38;5072033;28;20024;-80
2021/06/25 00:58:19;;;;;;;5.78;2.40;;;;;;;24.30;33.19;101947.69;5071845;28;20052;-80
2021/06/25 01:00:46;;;;;;;8.02;2.65;;;;;;;24.00;33.59;101958.84;5072274;28;20115;-80
2021/06/25 01:03:13;;;;;;;8.32;2.45;;;;;;;24.25;33.13;101951.63;5071957;28;20427;-78
2021/06/25 01:05:38;;;;;;;4.80;2.45;;;;;;;24.22;33.09;101952.38;5071985;28;20025;-79
2021/06/25 01:08:06;;;;;;;10.32;3.03;;;;;;;24.16;33.25;101964.25;5054198;28;20031;-80
2021/06/25 01:10:34;;;;;;;7.65;2.95;;;;;;;23.93;33.55;101961.50;5072755;28;20024;-81
2021/06/25 01:12:59;;;;;;;4.47;2.20;;;;;;;23.93;33.38;101962.31;5075487;28;20103;-79
2021/06/25 01:15:25;;;;;;;7.85;2.85;;;;;;;24.07;33.27;101962.53;5075497;28;20446;-79
2021/06/25 01:17:51;;;;;;;5.30;2.08;;;;;;;24.04;32.94;101963.31;5075391;28;20025;-79
2021/06/25 01:20:26;;;;;;;10.23;2.53;;;;;;;24.08;32.73;101961.34;5075321;28;20081;-83
2021/06/25 01:22:52;;;;;;;4.78;2.42;;;;;;;24.05;32.72;101964.09;5075333;28;20059;-78
2021/06/25 01:25:19;;;;;;;7.38;2.40;;;;;;;23.90;32.66;101956.69;5057260;28;20554;-80
2021/06/25 01:27:54;;;;;;;8.70;2.58;;;;;;;23.76;32.78;101957.25;5057175;28;20024;-80
2021/06/25 01:30:22;;;;;;;11.48;3.55;;;;;;;23.91;32.70;101963.88;5057303;28;20481;-80
2021/06/25 01:32:48;;;;;;;7.07;2.75;;;;;;;24.02;32.48;101957.25;5075074;28;20386;-81
2021/06/25 01:35:14;;;;;;;9.30;3.22;;;;;;;24.11;32.34;101957.03;5057158;28;20024;-82
2021/06/25 01:37:42;;;;;;;9.57;4.07;;;;;;;24.06;32.41;101952.56;5075125;28;20047;-80
2021/06/25 01:40:10;;;;;;;11.68;4.57;;;;;;;23.92;32.57;101943.16;5074875;28;20023;-82
2021/06/25 01:42:38;;;;;;;13.05;6.78;;;;;;;23.89;32.68;101939.13;5056988;28;20374;-78
2021/06/25 01:45:08;;;;;;;14.52;6.82;;;;;;;23.97;32.47;101934.47;5074828;28;20356;-82
2021/06/25 01:47:37;;;;;;;18.63;9.10;;;;;;;23.70;32.94;101934.44;5074853;28;20036;-78
2021/06/25 01:50:09;;;;;;;20.30;7.70;;;;;;;23.85;32.44;101941.06;5074946;28;20048;-81
2021/06/25 01:52:35;;;;;;;14.10;6.65;;;;;;;23.87;32.60;101935.09;5074820;28;20024;-81
2021/06/25 01:55:01;;;;;;;8.13;4.55;;;;;;;23.80;32.81;101939.41;5074768;28;20577;-81
2021/06/25 01:57:29;;;;;;;11.48;6.78;;;;;;;23.84;32.57;101942.25;5074473;28;20445;-80
2021/06/25 01:59:55;;;;;;;9.38;3.90;;;;;;;23.82;32.67;101935.44;5074516;28;20054;-81
2021/06/25 02:02:20;;;;;;;11.20;2.65;;;;;;;23.84;32.35;101928.28;5074563;28;20025;-79
2021/06/25 02:04:46;;;;;;;7.15;3.28;;;;;;;23.83;32.58;101939.84;5068227;28;20017;-81
2021/06/25 02:07:12;;;;;;;7.95;2.25;;;;;;;23.77;32.70;101945.72;5054382;28;20108;-79
2021/06/25 02:09:37;;;;;;;7.63;2.80;;;;;;;23.69;32.67;101941.22;5054488;28;20040;-80
2021/06/25 02:12:03;;;;;;;6.13;1.95;;;;;;;23.56;32.75;101956.50;5054463;28;20627;-82
2021/06/25 02:14:30;;;;;;;6.20;2.80;;;;;;;23.42;33.17;101942.28;5054333;28;20379;-79
2021/06/25 02:16:59;;;;;;;8.02;3.60;;;;;;;23.35;33.31;101940.22;5054376;28;20032;-82
2021/06/25 02:19:25;;;;;;;11.13;3.20;;;;;;;23.57;32.56;101930.19;5054308;28;20095;-79
2021/06/25 02:21:50;;;;;;;6.05;2.05;;;;;;;23.57;32.80;101938.56;5053498;28;20037;-79
2021/06/25 02:24:16;;;;;;;6.32;2.03;;;;;;;23.71;32.43;101929.66;5054012;28;20028;-81
2021/06/25 02:26:42;;;;;;;7.75;2.15;;;;;;;23.63;32.87;101933.53;5054224;28;20391;-81
2021/06/25 02:29:08;;;;;;;7.38;2.28;;;;;;;23.65;32.43;101923.59;5054029;28;20391;-80
2021/06/25 02:31:34;;;;;;;5.20;2.17;;;;;;;23.40;33.15;101922.34;5054032;28;20044;-81
2021/06/25 02:33:59;;;;;;;7.35;2.78;;;;;;;23.54;32.85;101915.03;5053821;28;20025;-80
2021/06/25 02:36:25;;;;;;;8.68;2.53;;;;;;;23.62;32.62;101918.78;5053809;28;20564;-79
2021/06/25 02:38:51;;;;;;;6.15;2.35;;;;;;;23.40;33.06;101916.78;5035973;28;20020;-79
2021/06/25 02:41:19;;;;;;;5.32;2.00;;;;;;;23.42;33.11;101912.41;5053791;28;20112;-81
2021/06/25 02:43:44;;;;;;;8.38;2.50;;;;;;;23.52;32.67;101900.66;5053807;28;20044;-78
2021/06/25 02:46:10;;;;;;;4.60;1.95;;;;;;;23.15;33.42;101894.84;5053731;28;20435;-79
2021/06/25 02:48:36;;;;;;;5.35;1.95;;;;;;;23.24;32.79;101894.59;5053783;28;20491;-81
2021/06/25 02:51:01;;;;;;;5.78;2.35;;;;;;;23.37;33.01;101898.00;5035666;28;20028;-79
2021/06/25 02:53:27;;;;;;;4.70;1.92;;;;;;;23.28;33.11;101905.81;5052597;28;20024;-80
2021/06/25 02:55:52;;;;;;;8.05;2.10;;;;;;;23.40;32.92;101897.25;5035235;28;20032;-80
2021/06/25 02:58:20;;;;;;;9.38;2.13;;;;;;;23.19;33.11;101883.75;5053260;28;20407;-79
2021/06/25 03:00:46;;;;;;;5.88;1.88;;;;;;;22.94;33.71;101866.56;5053419;28;20074;-82
2021/06/25 03:03:12;;;;;;;9.98;2.85;;;;;;;23.10;33.17;101874.81;5053439;28;20028;-79
2021/06/25 03:05:37;;;;;;;7.28;1.83;;;;;;;22.93;33.37;101879.72;5053455;28;20029;-80
2021/06/25 03:08:03;;;;;;;8.90;2.60;;;;;;;23.01;33.25;101857.53;5035484;28;20391;-78
2021/06/25 03:10:29;;;;;;;8.75;2.25;;;;;;;22.74;33.67;101874.13;5053192;28;20079;-81
2021/06/25 03:12:54;;;;;;;5.80;1.77;;;;;;;22.75;33.60;101891.63;5053280;28;20047;-80
2021/06/25 03:15:20;;;;;;;6.43;1.95;;;;;;;22.63;33.61;101890.66;5053164;28;20096;-81
2021/06/25 03:17:45;;;;;;;6.72;2.10;;;;;;;22.82;33.36;101894.56;5053083;28;20099;-80
2021/06/25 03:20:12;;;;;;;8.52;3.42;;;;;;;22.87;33.25;101905.44;5052982;28;20029;-81
2021/06/25 03:22:37;;;;;;;6.65;2.30;;;;;;;22.84;33.46;101895.03;5053125;28;20025;-79
2021/06/25 03:25:06;;;;;;;5.10;2.10;;;;;;;23.02;33.05;101898.97;5052952;28;20052;-79
2021/06/25 03:27:32;;;;;;;5.95;1.98;;;;;;;23.14;33.07;101886.84;5052924;28;20029;-79
2021/06/25 03:29:57;;;;;;;10.85;3.08;;;;;;;23.29;32.71;101894.28;5052974;28;20029;-79
2021/06/25 03:32:23;;;;;;;6.82;2.38;;;;;;;23.30;33.01;101897.88;5052939;28;20487;-77
2021/06/25 03:34:49;;;;;;;7.50;2.45;;;;;;;23.16;32.99;101899.22;5052724;28;20033;-79
2021/06/25 03:37:15;;;;;;;7.53;2.45;;;;;;;23.23;32.69;101896.56;5052827;28;20112;-81
2021/06/25 03:39:41;;;;;;;9.85;3.53;;;;;;;23.38;32.85;101896.81;5052708;28;20024;-79
2021/06/25 03:42:07;;;;;;;11.75;2.97;;;;;;;23.22;33.19;101894.97;5052788;28;20391;-81
2021/06/25 03:44:33;;;;;;;8.30;2.80;;;;;;;23.32;33.20;101892.72;5052774;28;20024;-78
2021/06/25 03:46:58;;;;;;;8.05;2.70;;;;;;;23.42;32.60;101895.69;5052739;28;20040;-80
2021/06/25 03:49:24;;;;;;;9.30;2.78;;;;;;;23.45;32.57;101883.00;5052683;28;20110;-78
2021/06/25 03:51:50;;;;;;;8.13;2.67;;;;;;;23.33;33.14;101881.19;5052742;28;20033;-79
2021/06/25 03:54:16;;;;;;;7.32;2.75;;;;;;;23.34;32.99;101874.44;5052700;28;20029;-83
2021/06/25 03:56:43;;;;;;;9.70;2.55;;;;;;;23.34;32.78;101868.06;5034752;28;20035;-81
2021/06/25 03:59:08;;;;;;;13.13;3.33;;;;;;;23.11;33.33;101866.06;5052494;28;20048;-81
2021/06/25 04:01:34;;;;;;;6.50;2.47;;;;;;;23.06;33.23;101868.41;5034559;28;20526;-80
2021/06/25 04:03:59;;;;;;;7.70;2.33;;;;;;;23.16;33.26;101881.69;5034719;28;20029;-81
2021/06/25 04:06:25;;;;;;;7.20;2.58;;;;;;;23.15;33.20;101885.66;5052620;28;20045;-82
2021/06/25 04:08:51;;;;;;;5.30;2.47;;;;;;;22.64;33.91;101886.69;5052572;28;20043;-80
2021/06/25 04:11:20;;;;;;;6.50;2.00;;;;;;;23.12;33.04;101881.63;5052523;28;20036;-82
2021/06/25 04:13:46;;;;;;;3.90;1.85;;;;;;;23.32;32.65;101889.94;5034752;28;20029;-81
2021/06/25 04:16:13;;;;;;;6.75;2.53;;;;;;;23.30;32.73;101889.53;5052294;28;20029;-79
2021/06/25 04:18:38;;;;;;;6.50;2.33;;;;;;;23.14;33.16;101887.66;5034552;28;20559;-80
2021/06/25 04:21:04;;;;;;;12.07;2.30;;;;;;;22.92;33.49;101896.81;5052223;28;20037;-79
2021/06/25 04:23:30;;;;;;;6.05;2.65;;;;;;;23.25;32.98;101901.78;5052667;28;20491;-79
2021/06/25 04:25:55;;;;;;;8.43;2.60;;;;;;;23.32;32.91;101903.88;5052314;28;20029;-81
2021/06/25 04:28:21;;;;;;;5.35;2.70;;;;;;;23.15;33.21;101900.41;5052494;28;20427;-82
2021/06/25 04:30:47;;;;;;;5.55;2.17;;;;;;;23.05;33.63;101905.78;5034669;28;20021;-79
2021/06/25 04:33:13;;;;;;;6.63;2.20;;;;;;;23.21;33.06;101903.72;5052408;28;20036;-82
2021/06/25 04:35:41;;;;;;;6.90;3.55;;;;;;;23.01;33.28;101904.94;5034389;28;20120;-81
2021/06/25 04:38:08;;;;;;;11.43;5.35;;;;;;;23.13;33.04;101908.34;5052383;28;20597;-79
2021/06/25 04:40:37;;;;;;;14.52;7.40;;;;;;;23.35;33.18;101905.91;5052160;28;20025;-82
2021/06/25 04:43:03;;;;;;;17.27;8.23;;;;;;;23.37;33.06;101895.22;5034388;28;20058;-81
2021/06/25 04:45:28;;;;;;;16.20;8.35;;;;;;;23.45;33.04;101891.38;5052900;28;20024;-80
2021/06/25 04:47:54;;;;;;;16.25;6.72;;;;;;;23.23;33.61;101887.41;5056084;28;20029;-79
2021/06/25 04:50:20;;;;;;;22.45;11.43;;;;;;;23.37;33.12;101892.44;5038108;28;20475;-79
2021/06/25 04:52:45;;;;;;;21.70;8.60;;;;;;;22.83;33.91;101904.56;5055963;28;20092;-81
2021/06/25 04:55:11;;;;;;;18.20;8.40;;;;;;;23.32;33.15;101901.09;5055835;28;20025;-81
2021/06/25 04:57:38;;;;;;;15.52;7.00;;;;;;;23.05;33.51;101895.47;5055677;28;20409;-79
2021/06/25 05:00:08;;;;;;;12.32;5.65;;;;;;;22.33;35.01;101896.00;5055504;28;20029;-79
2021/06/25 05:02:33;;;;;;;;;;;;;;;23.10;33.65;101892.34;5054974;28;20499;-81
2021/06/25 05:04:59;;;;;;;10.35;4.53;;;;;;;22.78;34.21;101886.16;5055678;28;19962;-81
2021/06/25 05:07:24;;;;;;;23.17;8.05;;;;;;;22.97;33.72;101882.53;5037791;28;20074;-82
2021/06/25 05:09:50;;;;;;;13.82;7.50;;;;;;;22.96;33.97;101876.16;5055346;28;20021;-80
2021/06/25 05:12:16;;;;;;;25.90;11.68;;;;;;;23.15;33.69;101877.31;5055849;28;20020;-79
2021/06/25 05:14:41;;;;;;;29.42;14.07;;;;;;;23.17;33.64;101886.91;5055542;28;20502;-82
2021/06/25 05:17:07;;;;;;;26.40;14.80;;;;;;;23.40;33.41;101888.88;5037490;28;20679;-80
2021/06/25 05:19:33;;;;;;;24.40;13.70;;;;;;;23.34;33.49;101898.72;5055339;28;20494;-80
2021/06/25 05:21:58;;;;;;;19.08;10.23;;;;;;;22.92;34.26;101897.59;5055269;28;20062;-79
2021/06/25 05:24:24;;;;;;;20.88;9.75;;;;;;;23.28;33.89;101914.19;5055340;28;20017;-81
2021/06/25 05:26:49;;;;;;;19.55;9.38;;;;;;;23.45;33.60;101908.09;5055243;28;20388;-79
2021/06/25 05:29:15;;;;;;;24.00;10.13;;;;;;;22.88;34.53;101912.63;5055211;28;20029;-79
2021/06/25 05:31:41;;;;;;;25.77;12.15;;;;;;;23.02;34.27;101909.31;5055252;28;20545;-81
2021/06/25 05:34:07;;;;;;;26.98;14.43;;;;;;;23.38;33.60;101913.56;5055252;28;20399;-81
2021/06/25 05:36:33;;;;;;;22.23;12.90;;;;;;;23.12;34.05;101920.66;5055155;28;20021;-81
2021/06/25 05:38:58;;;;;;;22.67;12.25;;;;;;;23.08;34.16;101921.78;5055064;28;20029;-82
2021/06/25 05:41:24;;;;;;;20.67;8.75;;;;;;;23.33;34.01;101925.00;5054942;28;20108;-79
2021/06/25 05:43:50;;;;;;;22.50;10.27;;;;;;;23.35;33.90;101928.22;5055061;28;20021;-80
2021/06/25 05:46:15;;;;;;;18.70;7.50;;;;;;;23.36;33.93;101921.50;5055055;28;20494;-81
2021/06/25 05:48:41;;;;;;;15.85;4.63;;;;;;;23.20;34.24;101918.81;5054751;28;20075;-81
2021/06/25 05:51:07;;;;;;;9.02;3.53;;;;;;;23.22;34.38;101911.69;5054836;28;20071;-78
2021/06/25 05:53:33;;;;;;;15.50;4.63;;;;;;;23.31;34.21;101910.66;5036774;28;20025;-79
2021/06/25 05:55:59;;;;;;;11.05;3.25;;;;;;;23.35;34.17;101915.13;5054532;28;20021;-79
2021/06/25 05:58:25;;;;;;;8.82;3.47;;;;;;;23.34;34.37;101916.25;5053042;28;20044;-78
2021/06/25 06:00:51;;;;;;;6.30;3.05;;;;;;;23.26;34.35;101909.75;5036479;28;20028;-78
2021/06/25 06:03:16;;;;;;;16.50;4.38;;;;;;;23.17;34.46;101911.19;5054620;28;20025;-79
2021/06/25 06:05:45;;;;;;;9.13;3.47;;;;;;;23.47;34.00;101912.13;5054512;28;20020;-77
2021/06/25 06:08:10;;;;;;;10.82;3.50;;;;;;;23.43;33.95;101919.63;5054434;28;20060;-80
2021/06/25 06:10:36;;;;;;;13.32;3.38;;;;;;;23.30;34.40;101917.41;5054482;28;20053;-79
2021/06/25 06:13:02;;;;;;;10.07;3.05;;;;;;;23.44;34.30;101923.22;5036450;28;20016;-78
2021/06/25 06:15:28;;;;;;;10.55;3.33;;;;;;;23.34;34.41;101924.63;5036182;28;20462;-77
2021/06/25 06:17:55;;;;;;;10.57;3.33;;;;;;;23.40;34.01;101925.13;5054102;28;20095;-80
2021/06/25 06:20:23;;;;;;;12.80;4.07;;;;;;;23.48;34.16;101929.66;5054085;28;20467;-78
2021/06/25 06:33:44;;;;;;;13.68;3.60;;;;;;;23.46;34.39;101937.59;5069689;28;20037;-78
2021/06/25 06:36:17;;;;;;;11.18;3.08;;;;;;;23.50;33.84;101930.91;5057483;28;20028;-82
2021/06/25 06:38:43;;;;;;;10.98;3.55;;;;;;;23.50;34.10;101938.44;5055819;28;20024;-80
2021/06/25 06:41:09;;;;;;;12.30;3.60;;;;;;;23.45;34.16;101936.00;5055747;28;20123;-78
2021/06/25 06:43:37;;;;;;;10.40;3.30;;;;;;;23.59;33.96;101924.28;5073463;28;20438;-79
2021/06/25 06:46:03;;;;;;;11.13;3.25;;;;;;;23.45;33.96;101936.00;5055757;28;20025;-80
2021/06/25 06:48:29;;;;;;;7.75;2.95;;;;;;;23.48;34.13;101936.03;5073686;28;20051;-81
2021/06/25 06:50:55;;;;;;;10.77;3.40;;;;;;;23.61;33.65;101947.03;5055713;28;20474;-78
2021/06/25 06:53:21;;;;;;;15.45;5.40;;;;;;;23.61;33.92;101933.91;5073345;28;20032;-80
2021/06/25 06:55:47;;;;;;;9.65;2.55;;;;;;;23.60;33.96;101939.84;5073390;28;20029;-81
2021/06/25 06:58:12;;;;;;;14.05;3.28;;;;;;;23.84;33.42;101942.25;5072997;28;20388;-80
2021/06/25 07:00:39;;;;;;;9.90;2.25;;;;;;;23.68;33.80;101934.03;5073362;28;20033;-79
2021/06/25 07:03:04;;;;;;;12.30;3.67;;;;;;;23.73;33.61;101939.28;5073298;28;20028;-79
2021/06/25 07:05:30;;;;;;;11.43;2.67;;;;;;;23.79;33.97;101942.53;5073307;28;20108;-79
2021/06/25 07:07:55;;;;;;;9.77;3.38;;;;;;;23.80;33.66;101936.63;5072949;28;20036;-78
2021/06/25 07:10:21;;;;;;;7.53;2.72;;;;;;;23.64;34.09;101944.31;5052572;28;20075;-79
2021/06/25 07:12:46;;;;;;;10.32;2.80;;;;;;;23.63;33.71;101942.69;5071627;28;20033;-79
2021/06/25 07:15:12;;;;;;;13.52;3.15;;;;;;;23.67;33.54;101940.78;5065937;28;20025;-84
2021/06/25 07:17:38;;;;;;;9.57;3.17;;;;;;;23.61;33.68;101941.47;5053334;28;20024;-82
2021/06/25 07:20:05;;;;;;;7.88;2.72;;;;;;;23.64;33.65;101946.28;5053297;28;20033;-87
2021/06/25 07:22:31;;;;;;;9.68;3.00;;;;;;;23.71;33.65;101938.03;5053920;28;20025;-80
2021/06/25 07:24:56;;;;;;;11.32;2.63;;;;;;;23.75;33.43;101942.50;5053196;28;20547;-75
2021/06/25 07:27:22;;;;;;;7.32;2.80;;;;;;;23.74;33.93;101943.69;5056193;28;20032;-76
2021/06/25 07:29:48;;;;;;;6.82;2.67;;;;;;;23.77;33.46;101933.75;5057136;28;20297;-77
2021/06/25 07:32:14;;;;;;;5.80;2.42;;;;;;;23.84;33.74;101942.25;5057183;28;20044;-84
2021/06/25 07:34:40;;;;;;;9.68;2.78;;;;;;;23.62;34.08;101945.88;5056812;28;20136;-75
2021/06/25 07:37:06;;;;;;;7.57;2.85;;;;;;;23.82;33.80;101946.59;5056959;28;20496;-75
2021/06/25 07:39:31;;;;;;;8.32;2.22;;;;;;;23.81;33.59;101954.16;5056624;28;20029;-76
2021/06/25 07:41:57;;;;;;;21.73;3.38;;;;;;;23.82;33.49;101957.75;5057467;28;20024;-88
2021/06/25 07:44:23;;;;;;;7.32;2.67;;;;;;;23.79;33.56;101957.31;5056151;28;20020;-75
2021/06/25 07:46:49;;;;;;;7.45;2.40;;;;;;;23.89;33.76;101955.09;5057327;28;20081;-75
2021/06/25 07:49:14;;;;;;;9.23;2.90;;;;;;;24.04;33.47;101957.72;5057183;28;20486;-80
2021/06/25 07:51:40;;;;;;;9.13;1.98;;;;;;;24.02;33.31;101956.47;5056614;28;20038;-77
2021/06/25 07:54:05;;;;;;;12.73;3.75;;;;;;;23.93;33.72;101955.94;5056453;28;20498;-75
2021/06/25 07:56:31;;;;;;;10.07;3.25;;;;;;;24.09;33.41;101953.78;5056629;28;20110;-74
2021/06/25 07:58:57;;;;;;;7.75;2.72;;;;;;;24.02;33.94;101960.06;5056621;28;20048;-75
2021/06/25 08:01:25;;;;;;;8.38;2.58;;;;;;;24.09;33.65;101970.53;5035560;28;20028;-74
2021/06/25 08:03:50;;;;;;;12.48;3.47;;;;;;;23.80;34.19;101969.28;5041007;28;20024;-74
2021/06/25 08:06:16;;;;;;;10.32;3.78;;;;;;;24.07;33.92;101956.16;5072550;28;20104;-74
2021/06/25 08:08:42;;;;;;;6.03;2.10;;;;;;;24.20;33.66;101954.75;5072635;28;20390;-83
2021/06/25 08:11:08;;;;;;;5.43;2.30;;;;;;;24.16;33.56;101961.47;5054711;28;20039;-78
2021/06/25 08:13:34;;;;;;;6.13;1.85;;;;;;;24.24;33.32;101965.97;5072479;28;20025;-89
2021/06/25 08:15:59;;;;;;;6.97;2.05;;;;;;;24.38;33.56;101957.00;5072751;28;20063;-75
2021/06/25 08:18:25;;;;;;;9.82;3.05;;;;;;;24.32;33.46;101962.09;5071311;28;20029;-88
2021/06/25 08:20:51;;;;;;;6.38;2.47;;;;;;;24.29;33.22;101963.66;5073964;28;20097;-90
2021/06/25 08:23:16;;;;;;;5.57;1.83;;;;;;;24.31;33.34;101969.66;5076775;28;20029;-74
2021/06/25 08:25:42;;;;;;;10.80;2.42;;;;;;;24.24;33.38;101965.97;5077068;28;20375;-74
2021/06/25 08:28:09;;;;;;;4.75;2.50;;;;;;;24.19;33.37;101971.91;5076710;28;20032;-75
2021/06/25 08:30:34;;;;;;;9.77;2.58;;;;;;;24.33;33.26;101970.13;5059138;28;20093;-88
2021/06/25 08:33:00;;;;;;;7.63;2.45;;;;;;;24.33;33.06;101969.31;5076685;28;20032;-82
2021/06/25 08:35:25;;;;;;;9.02;2.20;;;;;;;24.36;33.44;101971.38;5076533;28;20107;-76
2021/06/25 08:37:52;;;;;;;9.10;2.17;;;;;;;24.26;33.26;101970.00;5076435;28;20025;-75
2021/06/25 08:40:19;;;;;;;7.72;2.53;;;;;;;24.21;33.46;101975.09;5076463;28;20074;-79
2021/06/25 08:42:45;;;;;;;12.77;2.55;;;;;;;24.31;33.65;101960.47;5057998;28;20028;-75
2021/06/25 08:45:12;;;;;;;4.85;1.95;;;;;;;24.23;33.71;101967.16;5076317;28;20107;-75
2021/06/25 08:47:43;;;;;;;9.82;2.63;;;;;;;24.44;33.16;101955.50;5074865;28;20565;-79
2021/06/25 08:50:15;;;;;;;6.90;1.88;;;;;;;24.27;33.34;101954.06;5076469;28;20060;-75
2021/06/25 08:52:46;;;;;;;6.47;1.92;;;;;;;24.42;33.20;101958.69;5075756;28;20109;-82
2021/06/25 08:55:13;;;;;;;5.63;1.85;;;;;;;24.36;33.21;101957.41;5075764;28;20028;-74
2021/06/25 08:57:38;;;;;;;7.20;2.60;;;;;;;24.22;33.67;101957.16;5058235;28;20036;-73
2021/06/25 09:00:07;;;;;;;10.05;2.67;;;;;;;24.26;33.46;101958.84;5075104;28;20491;-76
2021/06/25 09:02:35;;;;;;;6.90;2.67;;;;;;;24.18;33.98;101953.50;5075628;28;20033;-90
2021/06/25 09:05:06;;;;;;;8.27;3.15;;;;;;;24.35;33.51;101955.78;5076282;28;20421;-76
2021/06/25 09:07:43;;;;;;;6.20;2.08;;;;;;;24.41;33.61;101957.06;5058537;28;20032;-84
2021/06/25 09:10:10;;;;;;;10.85;3.00;;;;;;;24.41;33.79;101961.84;5058329;28;20029;-80
2021/06/25 09:12:37;;;;;;;6.50;2.47;;;;;;;24.46;33.68;101962.31;5076175;28;20078;-75
2021/06/25 09:15:17;;;;;;;8.85;2.58;;;;;;;24.51;33.44;101970.38;5075631;28;20028;-75
2021/06/25 09:17:55;;;;;;;9.07;2.30;;;;;;;24.47;33.54;101968.69;5074906;28;20039;-89
2021/06/25 09:20:34;;;;;;;8.85;2.25;;;;;;;24.24;33.90;101965.97;5075444;28;20542;-74
2021/06/25 09:23:01;;;;;;;5.47;1.65;;;;;;;24.45;33.28;101960.72;5075555;28;20646;-75
2021/06/25 09:25:26;;;;;;;3.50;1.20;;;;;;;24.39;33.16;101964.22;5075745;28;20040;-74
2021/06/25 09:27:58;;;;;;;5.13;1.98;;;;;;;24.40;33.28;101968.59;5075698;28;20036;-91
2021/06/25 09:30:26;;;;;;;7.10;1.80;;;;;;;24.38;33.42;101970.97;5057722;28;20028;-83
2021/06/25 09:32:52;;;;;;;7.65;1.77;;;;;;;24.44;33.26;101975.88;5075523;28;20078;-75
2021/06/25 09:35:20;;;;;;;8.25;1.63;;;;;;;24.40;33.02;101971.41;5057468;28;20753;-85
2021/06/25 09:37:48;;;;;;;4.43;1.55;;;;;;;24.28;32.78;101967.63;5074910;28;20037;-75
2021/06/25 09:40:16;;;;;;;4.20;1.40;;;;;;;24.43;32.92;101973.44;5076172;28;20032;-74
2021/06/25 09:42:43;;;;;;;5.53;1.60;;;;;;;24.26;32.95;101981.19;5057401;28;20029;-74
2021/06/25 09:45:17;;;;;;;10.23;2.22;;;;;;;24.29;33.00;101988.00;5056722;28;20049;-80
2021/06/25 09:47:53;;;;;;;3.72;1.55;;;;;;;24.30;32.85;101989.59;5073893;28;20089;-88
2021/06/25 09:50:22;;;;;;;6.22;1.60;;;;;;;24.19;32.86;101994.22;5074942;28;20491;-75
2021/06/25 09:53:00;;;;;;;9.40;1.90;;;;;;;24.24;32.73;101982.72;5075056;28;20027;-75
2021/06/25 09:55:53;;;;;;;11.25;2.22;;;;;;;24.32;32.71;101979.69;5075128;28;20028;-75
2021/06/25 10:03:55;;;;;;;6.07;1.75;;;;;;;24.33;33.18;101992.47;5075289;28;20071;-76
2021/06/25 10:06:24;;;;;;;12.48;2.03;;;;;;;24.45;33.10;101990.63;5074920;28;20547;-92
2021/06/25 10:08:50;;;;;;;6.07;1.80;;;;;;;24.52;32.85;101979.56;5075030;28;20157;-75
2021/06/25 10:11:18;;;;;;;5.90;1.80;;;;;;;24.57;32.85;102001.59;5057250;28;20021;-80
2021/06/25 10:13:46;;;;;;;7.82;1.98;;;;;;;24.44;32.99;102014.97;5074726;28;20029;-75
2021/06/25 10:16:12;;;;;;;8.45;1.90;;;;;;;24.43;33.07;102006.97;5074519;28;20024;-83
2021/06/25 10:18:43;;;;;;;6.00;1.80;;;;;;;24.51;32.89;102006.69;5072079;28;20519;-75
2021/06/25 10:21:14;;;;;;;5.05;1.50;;;;;;;24.55;33.38;102003.94;5055235;28;20079;-79
2021/06/25 10:23:45;;;;;;;10.77;2.70;;;;;;;24.53;33.22;102003.50;5058505;28;20032;-76
2021/06/25 10:26:13;;;;;;;4.25;1.65;;;;;;;24.58;33.19;102006.00;5073770;28;20489;-90
2021/06/25 10:28:40;;;;;;;6.53;2.13;;;;;;;24.37;33.47;102006.50;5074625;28;20032;-80
2021/06/25 10:31:08;;;;;;;5.18;1.30;;;;;;;24.33;33.72;102011.19;5074590;28;20498;-83
2021/06/25 10:33:35;;;;;;;8.82;2.15;;;;;;;24.02;34.22;102017.88;5074127;28;20024;-76
2021/06/25 10:36:04;;;;;;;6.80;1.42;;;;;;;24.06;34.16;102018.75;5070848;28;20037;-75
2021/06/25 10:38:30;;;;;;;6.88;1.52;;;;;;;23.92;34.20;102022.13;5057186;28;20086;-75
2021/06/25 10:41:07;;;;;;;5.45;1.63;;;;;;;23.86;33.76;102020.00;5050877;28;20029;-74
2021/06/25 10:43:41;;;;;;;7.00;2.13;;;;;;;23.93;33.70;102026.50;5070025;28;20032;-81
2021/06/25 10:46:39;;;;;;;2.47;0.90;;;;;;;23.95;33.54;102024.16;5055802;28;20020;-81
2021/06/25 10:49:14;;;;;;;6.13;1.30;;;;;;;23.96;33.56;102023.00;5073253;28;20462;-81
2021/06/25 10:51:42;;;;;;;6.68;2.20;;;;;;;24.02;33.51;102017.88;5054882;28;20055;-81
2021/06/25 10:54:14;;;;;;;3.05;1.20;;;;;;;23.67;34.02;102027.28;5073355;28;20378;-83
2021/06/25 10:56:50;;;;;;;9.18;1.30;;;;;;;23.96;33.69;102025.78;5073476;28;20025;-81
2021/06/25 10:59:28;;;;;;;4.00;1.40;;;;;;;23.85;34.07;102033.16;5064788;28;20041;-81
2021/06/25 11:01:57;;;;;;;6.30;1.73;;;;;;;24.03;33.67;102027.88;5073108;28;20390;-81
2021/06/25 11:04:44;;;;;;;11.80;2.97;;;;;;;23.97;33.77;102030.19;5071923;28;20115;-81
2021/06/25 11:07:16;;;;;;;5.57;1.60;;;;;;;24.04;33.50;102026.72;5072026;28;20089;-79
2021/06/25 11:09:57;;;;;;;5.88;1.90;;;;;;;23.98;33.92;102025.41;5071879;28;20028;-81
2021/06/25 11:12:38;;;;;;;5.55;1.58;;;;;;;24.14;33.38;102020.47;5072771;28;20039;-81
2021/06/25 11:15:03;;;;;;;6.47;2.17;;;;;;;24.12;33.51;102017.25;5072566;28;20027;-82
2021/06/25 11:17:47;;;;;;;9.05;1.73;;;;;;;24.12;33.24;102013.66;5071805;28;20024;-81
2021/06/25 11:20:29;;;;;;;5.30;1.95;;;;;;;24.07;33.62;102020.38;5071094;28;20020;-81
2021/06/25 11:23:14;;;;;;;6.65;1.55;;;;;;;24.01;33.67;102014.28;5071593;28;20023;-81
2021/06/25 11:25:51;;;;;;;5.53;1.13;;;;;;;24.15;33.43;102013.72;5071643;28;20035;-81
2021/06/25 11:28:26;;;;;;;5.53;1.65;;;;;;;24.15;33.25;102019.28;5071437;28;20048;-82
2021/06/25 11:31:05;;;;;;;3.50;1.35;;;;;;;24.10;33.64;102025.19;5071769;28;20474;-83
2021/06/25 11:33:57;;;;;;;3.38;1.20;;;;;;;24.26;33.32;102025.06;5071014;28;20033;-81
2021/06/25 11:36:40;;;;;;;6.78;2.03;;;;;;;24.32;33.10;102029.94;5071501;28;20024;-82
2021/06/25 11:39:19;;;;;;;3.95;1.40;;;;;;;24.58;33.01;102025.53;5072906;28;20479;-82
2021/06/25 11:42:09;;;;;;;2.58;1.05;;;;;;;24.39;33.04;102023.66;5071332;28;20035;-84